Time;durP1;ratioP1;P1;durP2;ratioP2;P2;SDS_P1;SDS_P2;PMS_P1;PMS_P2;Temp;Humidity;BMP_temperature;BMP_pressure;BME280_temperature;BME280_humidity;BME280_pressure;Samples;Min_cycle;Max_cycle;Signal;HPM_P1;HPM_P2
2021/12/08 00:01:21;;;;;;;48.85;20.30;;;;;;;-3.25;98.72;99332.72;4431934;32;34860;-70
2021/12/08 00:04:08;;;;;;;59.95;21.60;;;;;;;-3.14;97.61;99342.66;4433105;32;35406;-70
2021/12/08 00:06:54;;;;;;;53.17;20.40;;;;;;;-3.31;98.21;99350.50;4432527;32;35142;-69
2021/12/08 00:15:39;;;;;;;58.60;21.98;;;;;;;-3.76;100.00;99350.06;4433965;32;34682;-70
2021/12/08 00:18:28;;;;;;;57.88;21.58;;;;;;;-3.35;100.00;99349.34;4433261;32;35127;-70
2021/12/08 00:21:16;;;;;;;56.10;21.98;;;;;;;-2.98;99.42;99349.22;4421046;32;34727;-69
2021/12/08 00:24:02;;;;;;;55.60;22.60;;;;;;;-2.79;96.87;99342.75;4432961;32;34966;-70
2021/12/08 00:26:49;;;;;;;48.55;19.95;;;;;;;-2.77;95.28;99343.31;4431780;32;34296;-70
2021/12/08 00:29:35;;;;;;;51.35;18.83;;;;;;;-3.02;96.24;99343.47;4433635;32;35218;-69
2021/12/08 00:32:26;;;;;;;48.75;20.08;;;;;;;-2.53;94.18;99362.13;4432749;32;34612;-70
2021/12/08 00:35:13;;;;;;;45.85;20.15;;;;;;;-2.64;94.00;99357.56;4433592;32;35022;-70
2021/12/08 00:38:00;;;;;;;49.58;19.17;;;;;;;-2.51;94.24;99360.81;4432497;32;34520;-69
2021/12/08 00:40:48;;;;;;;47.47;19.33;;;;;;;-3.05;96.91;99365.38;4431276;32;34242;-69
2021/12/08 00:43:35;;;;;;;50.33;20.30;;;;;;;-2.34;94.19;99360.13;4431511;32;35513;-69
2021/12/08 00:46:22;;;;;;;47.35;18.92;;;;;;;-2.33;93.17;99365.28;4431362;32;35937;-69
2021/12/08 00:49:11;;;;;;;53.13;19.67;;;;;;;-2.86;94.20;99363.47;4433040;32;34553;-69
2021/12/08 00:51:57;;;;;;;48.33;19.27;;;;;;;-2.91;94.96;99368.69;4432249;32;35392;-70
2021/12/08 00:54:44;;;;;;;48.87;19.73;;;;;;;-2.66;93.60;99365.84;4422270;32;34608;-69
2021/12/08 00:57:30;;;;;;;47.50;18.98;;;;;;;-2.91;95.36;99376.72;4433233;32;36050;-69
2021/12/08 01:00:22;;;;;;;48.97;19.95;;;;;;;-3.23;96.59;99374.31;4432249;32;35422;-70
2021/12/08 01:03:09;;;;;;;49.45;19.50;;;;;;;-2.73;96.60;99379.34;4432532;32;34235;-69
2021/12/08 01:05:57;;;;;;;48.08;19.75;;;;;;;-2.66;93.07;99376.56;4420369;32;34214;-69
2021/12/08 01:08:44;;;;;;;51.75;20.17;;;;;;;-2.97;95.93;99369.63;4421256;32;34903;-70
2021/12/08 01:11:30;;;;;;;51.42;20.80;;;;;;;-3.04;95.67;99380.44;4420981;32;35181;-70
2021/12/08 01:14:17;;;;;;;54.10;19.95;;;;;;;-3.45;97.75;99371.28;4432008;32;34265;-71
2021/12/08 01:17:04;;;;;;;51.90;19.98;;;;;;;-3.49;98.99;99372.00;4432371;32;34197;-69
2021/12/08 01:19:51;;;;;;;45.03;20.10;;;;;;;-3.11;95.96;99368.19;4431590;32;33888;-69
2021/12/08 01:22:38;;;;;;;56.05;20.62;;;;;;;-3.11;96.26;99355.59;4430405;32;35212;-69
2021/12/08 01:25:24;;;;;;;45.38;21.25;;;;;;;-3.51;97.90;99355.31;4432093;32;34879;-69
2021/12/08 01:28:10;;;;;;;48.10;19.25;;;;;;;-3.05;94.55;99343.94;4421676;32;34641;-69
2021/12/08 01:30:59;;;;;;;46.33;18.65;;;;;;;-2.29;92.08;99342.28;4429502;32;35054;-69
2021/12/08 01:33:46;;;;;;;49.85;19.65;;;;;;;-2.41;91.35;99343.34;4432150;32;34645;-70
2021/12/08 01:36:32;;;;;;;42.60;18.40;;;;;;;-1.70;88.47;99333.34;4429795;32;34037;-70
2021/12/08 01:39:18;;;;;;;45.15;19.15;;;;;;;-1.57;87.26;99322.28;4432098;32;34317;-69
2021/12/08 01:42:06;;;;;;;44.50;17.62;;;;;;;-1.51;86.80;99326.69;4432464;32;35918;-70
2021/12/08 01:48:02;;;;;;;43.67;17.58;;;;;;;-1.89;87.69;99320.06;4431117;32;34417;-69
2021/12/08 01:50:52;;;;;;;45.80;17.83;;;;;;;-2.43;91.41;99313.25;4432017;32;34641;-69
2021/12/08 01:53:43;;;;;;;45.47;18.55;;;;;;;-2.65;90.42;99307.63;4431686;32;35862;-69
2021/12/08 01:56:30;;;;;;;43.33;18.42;;;;;;;-2.67;91.85;99312.44;4430837;32;35473;-69
2021/12/08 01:59:16;;;;;;;49.55;19.05;;;;;;;-2.96;94.07;99306.91;4431283;32;34222;-69
2021/12/08 02:02:02;;;;;;;45.38;18.35;;;;;;;-3.62;96.36;99306.81;4432127;32;34585;-69
2021/12/08 02:04:49;;;;;;;45.45;19.27;;;;;;;-3.18;95.32;99302.09;4431318;32;34622;-69
2021/12/08 02:07:35;;;;;;;44.45;19.35;;;;;;;-3.02;95.18;99294.44;4431422;32;35199;-69
2021/12/08 02:10:22;;;;;;;45.25;19.70;;;;;;;-1.89;89.57;99300.44;4430138;32;34311;-69
2021/12/08 02:13:09;;;;;;;47.20;18.98;;;;;;;-1.33;85.16;99295.34;4434078;32;34226;-69
2021/12/08 02:15:55;;;;;;;44.40;16.85;;;;;;;-0.99;83.10;99278.19;4433168;32;35061;-70
2021/12/08 02:18:44;;;;;;;44.47;18.10;;;;;;;-0.72;81.50;99272.13;4433616;32;34565;-69
2021/12/08 02:21:37;;;;;;;43.67;17.33;;;;;;;-0.75;81.06;99270.75;4433020;32;35014;-70
2021/12/08 02:24:24;;;;;;;41.80;16.60;;;;;;;-0.97;80.83;99259.94;4433483;32;34020;-71
2021/12/08 02:27:10;;;;;;;40.33;17.23;;;;;;;-1.39;82.74;99267.56;4434301;32;36021;-69
2021/12/08 02:30:05;;;;;;;38.55;16.30;;;;;;;-2.01;85.78;99273.62;4433313;32;35396;-70
2021/12/08 02:48:21;;;;;;;39.75;16.25;;;;;;;-3.64;93.33;99292.87;4434906;32;34710;-69
2021/12/08 02:51:08;;;;;;;40.60;16.27;;;;;;;-3.71;93.94;99297.47;4433097;32;34910;-69
2021/12/08 02:53:55;;;;;;;45.75;16.70;;;;;;;-3.01;91.89;99296.88;4433791;32;35484;-69
2021/12/08 02:56:41;;;;;;;38.33;15.45;;;;;;;-2.68;87.85;99308.91;4422590;32;34207;-70
2021/12/08 02:59:28;;;;;;;40.17;15.13;;;;;;;-2.54;87.93;99312.19;4432923;32;35432;-69
2021/12/08 03:02:14;;;;;;;43.00;16.37;;;;;;;-2.88;87.60;99311.94;4433522;32;35656;-69
2021/12/08 03:05:00;;;;;;;44.75;16.55;;;;;;;-2.71;88.63;99314.75;4434844;32;34655;-69
2021/12/08 03:07:47;;;;;;;38.45;14.68;;;;;;;-1.75;83.50;99319.78;4433027;32;34161;-70
2021/12/08 03:10:40;;;;;;;41.50;16.80;;;;;;;-1.59;82.09;99311.00;4432225;32;34200;-70
2021/12/08 03:13:37;;;;;;;41.72;16.73;;;;;;;-1.47;80.81;99309.06;4433381;32;34568;-70
2021/12/08 03:16:25;;;;;;;38.08;15.75;;;;;;;-1.69;80.04;99313.47;4432704;32;35449;-69
2021/12/08 03:19:12;;;;;;;38.35;16.45;;;;;;;-2.39;84.68;99317.91;4433184;32;34720;-69
2021/12/08 03:21:59;;;;;;;43.53;16.65;;;;;;;-2.14;84.40;99306.09;4432858;32;34425;-69
2021/12/08 03:24:47;;;;;;;36.67;16.35;;;;;;;-2.12;84.20;99304.00;4434434;32;34916;-69
2021/12/08 03:27:39;;;;;;;38.00;16.80;;;;;;;-2.22;83.05;99309.13;4433930;32;34536;-70
2021/12/08 03:30:32;;;;;;;38.42;15.00;;;;;;;-2.81;85.93;99301.94;4433279;32;34308;-70
2021/12/08 03:33:19;;;;;;;41.80;15.85;;;;;;;-2.81;87.65;99301.94;4423295;32;35183;-69
2021/12/08 03:36:05;;;;;;;38.95;16.40;;;;;;;-2.52;85.78;99299.37;4433134;32;35940;-69
2021/12/08 03:38:54;;;;;;;41.55;17.33;;;;;;;-1.99;83.88;99301.06;4433150;32;34843;-69
2021/12/08 03:41:40;;;;;;;40.28;17.10;;;;;;;-1.65;81.26;99287.75;4433548;32;35468;-69
2021/12/08 03:44:27;;;;;;;36.85;16.08;;;;;;;-2.65;84.59;99295.03;4421122;32;34621;-70
2021/12/08 03:47:16;;;;;;;38.95;16.60;;;;;;;-2.43;85.99;99292.59;4420611;32;34887;-69
2021/12/08 03:50:05;;;;;;;42.65;17.05;;;;;;;-2.10;83.84;99291.16;4431514;32;35431;-70
2021/12/08 03:52:51;;;;;;;46.47;18.35;;;;;;;-1.73;80.93;99285.47;4433372;32;34188;-70
2021/12/08 03:55:38;;;;;;;40.10;17.05;;;;;;;-1.84;80.25;99282.56;4431921;32;34269;-69
2021/12/08 03:58:25;;;;;;;39.00;16.23;;;;;;;-2.50;82.70;99291.91;4422717;32;34032;-70
2021/12/08 04:01:11;;;;;;;38.67;15.50;;;;;;;-1.97;81.83;99295.44;4432502;32;35510;-69
2021/12/08 04:04:05;;;;;;;40.00;15.95;;;;;;;-1.59;80.61;99281.44;4434419;32;35219;-69
2021/12/08 04:06:53;;;;;;;42.17;15.40;;;;;;;-1.55;79.47;99281.75;4432235;32;34535;-69
2021/12/08 04:09:42;;;;;;;39.47;17.15;;;;;;;-1.34;78.22;99291.00;4431799;32;34923;-69
2021/12/08 04:12:28;;;;;;;44.10;17.20;;;;;;;-1.75;79.24;99301.00;4432705;32;36156;-69
2021/12/08 04:15:16;;;;;;;38.63;15.93;;;;;;;-2.95;84.91;99300.50;4433085;32;34287;-69
2021/12/08 04:18:02;;;;;;;38.92;15.50;;;;;;;-2.36;83.62;99293.31;4434568;32;34639;-69
2021/12/08 04:20:52;;;;;;;34.45;14.63;;;;;;;-2.19;82.17;99295.25;4432932;32;34599;-69
2021/12/08 04:23:40;;;;;;;38.85;16.35;;;;;;;-2.59;84.39;99304.03;4433050;32;35094;-70
2021/12/08 04:26:33;;;;;;;39.70;15.55;;;;;;;-1.75;80.60;99298.31;4432446;32;35279;-69
2021/12/08 04:29:23;;;;;;;38.03;15.73;;;;;;;-1.58;78.61;99291.91;4430899;32;34143;-69
2021/12/08 04:32:15;;;;;;;44.88;16.92;;;;;;;-1.68;78.80;99278.31;4431874;32;33734;-69
2021/12/08 04:35:04;;;;;;;42.60;16.50;;;;;;;-1.62;78.66;99277.34;4431447;32;34785;-69
2021/12/08 04:37:55;;;;;;;37.17;15.00;;;;;;;-1.41;77.87;99283.09;4432641;32;34503;-69
2021/12/08 04:41:00;;;;;;;35.35;15.35;;;;;;;-1.35;77.38;99282.13;4419146;32;34210;-70
2021/12/08 04:43:57;;;;;;;37.60;15.68;;;;;;;-1.34;77.60;99291.00;4431284;32;34999;-70
2021/12/08 05:05:05;;;;;;;37.00;14.82;;;;;;;-4.21;89.58;99313.75;4432479;32;34541;-70
2021/12/08 05:08:00;;;;;;;38.13;15.27;;;;;;;-4.05;89.87;99311.50;4431731;32;34888;-70
2021/12/08 05:10:49;;;;;;;32.33;13.52;;;;;;;-3.06;86.16;99290.59;4431976;32;35476;-70
2021/12/08 05:13:35;;;;;;;38.72;15.27;;;;;;;-2.45;82.56;99281.28;4432910;32;35246;-70
2021/12/08 05:16:24;;;;;;;34.20;14.07;;;;;;;-4.07;87.49;99314.37;4431675;32;34202;-70
2021/12/08 05:19:13;;;;;;;36.20;14.02;;;;;;;-4.14;88.68;99319.00;4431666;32;35925;-70
2021/12/08 05:22:21;;;;;;;32.00;13.52;;;;;;;-2.75;81.61;99303.69;4432632;32;34558;-70
2021/12/08 05:25:12;;;;;;;30.67;12.52;;;;;;;-2.56;79.63;99298.19;4431741;32;35134;-71
2021/12/08 05:28:00;;;;;;;29.48;12.57;;;;;;;-2.20;77.05;99307.84;4430528;32;34365;-71
2021/12/08 05:30:50;;;;;;;28.80;12.25;;;;;;;-2.35;77.51;99292.25;4425663;32;35641;-70
2021/12/08 05:33:39;;;;;;;32.65;14.02;;;;;;;-2.12;76.98;99291.38;4420672;32;35580;-70
2021/12/08 05:36:26;;;;;;;29.37;13.70;;;;;;;-1.95;76.40;99293.34;4431503;32;34106;-70
2021/12/08 05:39:20;;;;;;;30.05;13.23;;;;;;;-2.13;75.84;99286.28;4432033;32;35487;-70
2021/12/08 05:42:14;;;;;;;30.30;13.90;;;;;;;-1.98;75.96;99267.78;4433291;32;34624;-70
2021/12/08 05:45:01;;;;;;;30.50;12.70;;;;;;;-1.72;75.36;99270.97;4432463;32;35513;-70
2021/12/08 05:47:49;;;;;;;30.70;13.25;;;;;;;-1.60;74.49;99285.16;4433822;32;34269;-70
2021/12/08 05:50:53;;;;;;;29.83;12.67;;;;;;;-2.20;75.50;99285.56;4435466;32;34218;-71
2021/12/08 05:53:43;;;;;;;24.40;10.32;;;;;;;-3.92;80.86;99296.12;4434815;32;36003;-70
2021/12/08 05:56:31;;;;;;;27.52;11.80;;;;;;;-3.62;84.39;99298.78;4434234;32;34338;-70
2021/12/08 05:59:22;;;;;;;26.33;11.77;;;;;;;-3.05;80.16;99297.56;4433800;32;35077;-70
2021/12/08 06:02:27;;;;;;;30.25;12.98;;;;;;;-2.34;77.76;99295.72;4434259;32;35463;-70
2021/12/08 06:05:14;;;;;;;32.10;13.13;;;;;;;-2.35;76.95;99294.91;4433644;32;35943;-70
2021/12/08 06:08:00;;;;;;;29.50;13.80;;;;;;;-2.00;75.70;99293.22;4434465;32;34667;-69
2021/12/08 06:10:50;;;;;;;32.03;13.13;;;;;;;-1.88;74.93;99297.53;4423745;32;34121;-70
2021/12/08 06:13:37;;;;;;;32.25;13.88;;;;;;;-1.98;75.04;99305.38;4423543;32;34517;-70
2021/12/08 06:16:24;;;;;;;31.33;13.35;;;;;;;-1.59;73.04;99305.63;4433655;32;35032;-70
2021/12/08 06:19:15;;;;;;;31.85;14.00;;;;;;;-1.44;71.99;99300.50;4434125;32;34303;-70
2021/12/08 06:22:04;;;;;;;29.67;14.20;;;;;;;-1.36;70.97;99297.44;4433717;32;34296;-71
2021/12/08 06:24:51;;;;;;;30.08;13.45;;;;;;;-1.33;70.42;99301.53;4435168;32;34586;-70
2021/12/08 06:27:45;;;;;;;32.75;14.93;;;;;;;-1.63;71.03;99297.19;4434235;32;34985;-70
2021/12/08 06:30:36;;;;;;;33.30;15.40;;;;;;;-2.12;72.97;99299.44;4434031;32;35380;-70
2021/12/08 06:33:28;;;;;;;29.75;14.30;;;;;;;-2.10;73.26;99300.03;4434231;32;34447;-70
2021/12/08 06:36:27;;;;;;;31.50;14.50;;;;;;;-2.42;74.65;99307.66;4423341;32;33344;-70
2021/12/08 06:39:19;;;;;;;29.35;14.02;;;;;;;-2.11;74.44;99319.84;4433250;32;34643;-70
2021/12/08 06:42:09;;;;;;;31.70;13.93;;;;;;;-1.62;72.19;99304.22;4435170;32;34600;-70
2021/12/08 06:44:57;;;;;;;33.20;14.27;;;;;;;-2.21;73.76;99308.09;4435069;32;34214;-70
2021/12/08 06:47:45;;;;;;;31.75;14.57;;;;;;;-1.77;73.00;99311.97;4433951;32;35197;-70
2021/12/08 06:50:45;;;;;;;31.02;14.50;;;;;;;-1.47;71.82;99311.75;4434215;32;35046;-70
2021/12/08 06:53:33;;;;;;;31.37;13.50;;;;;;;-1.53;71.38;99303.84;4434241;32;34810;-71
2021/12/08 06:56:24;;;;;;;28.40;12.82;;;;;;;-1.86;72.51;99311.50;4423001;32;34185;-70
2021/12/08 06:59:13;;;;;;;27.55;13.32;;;;;;;-1.51;71.76;99312.47;4411594;32;34378;-71
2021/12/08 07:02:10;;;;;;;26.70;12.60;;;;;;;-1.59;71.83;99308.31;4433987;32;34934;-71
2021/12/08 07:05:23;;;;;;;29.95;13.10;;;;;;;-1.98;72.66;99307.25;4434937;32;34669;-70
2021/12/08 07:08:10;;;;;;;30.67;13.95;;;;;;;-2.78;74.63;99300.66;4434012;32;34884;-72
2021/12/08 07:10:57;;;;;;;31.92;13.88;;;;;;;-3.11;76.30;99296.62;4432976;32;33557;-70
2021/12/08 07:13:47;;;;;;;31.37;14.52;;;;;;;-3.01;77.84;99304.12;4433042;32;34945;-70
2021/12/08 07:16:51;;;;;;;35.60;16.98;;;;;;;-2.66;76.48;99297.97;4434423;32;35417;-70
2021/12/08 07:19:44;;;;;;;37.80;17.55;;;;;;;-2.85;76.40;99299.94;4434819;32;34291;-70
2021/12/08 07:22:32;;;;;;;37.22;18.67;;;;;;;-4.57;84.26;99301.97;4434116;32;34681;-70
2021/12/08 07:25:24;;;;;;;35.65;17.90;;;;;;;-4.25;84.66;99311.72;4433234;32;35046;-70
2021/12/08 07:28:12;;;;;;;46.35;21.70;;;;;;;-2.73;79.55;99304.28;4433551;32;34790;-70
2021/12/08 07:31:04;;;;;;;40.75;20.25;;;;;;;-1.99;76.16;99306.44;4433682;32;34093;-70
2021/12/08 07:33:54;;;;;;;44.47;20.60;;;;;;;-1.59;74.05;99297.56;4433809;32;34220;-70
2021/12/08 07:36:43;;;;;;;38.67;18.75;;;;;;;-1.42;73.46;99298.41;4433715;32;35017;-70
2021/12/08 07:39:37;;;;;;;48.40;20.85;;;;;;;-1.25;73.27;99302.97;4433840;32;34606;-70
2021/12/08 07:42:32;;;;;;;49.00;20.83;;;;;;;-1.51;74.06;99305.19;4434759;32;34277;-70
2021/12/08 07:45:23;;;;;;;65.68;32.20;;;;;;;-1.18;73.85;99304.47;4434208;32;34052;-70
2021/12/08 07:48:14;;;;;;;49.10;25.05;;;;;;;-1.50;74.67;99312.22;4432945;32;34947;-70
2021/12/08 07:51:12;;;;;;;45.30;22.08;;;;;;;-2.08;77.99;99315.87;4433469;32;34816;-70
2021/12/08 07:54:00;;;;;;;48.08;21.58;;;;;;;-2.04;79.62;99322.44;4434744;32;34360;-71
2021/12/08 07:56:49;;;;;;;43.50;20.23;;;;;;;-1.12;76.13;99309.94;4433227;32;34550;-70
2021/12/08 07:59:38;;;;;;;39.15;19.73;;;;;;;-0.87;74.97;99317.63;4433456;32;34531;-71
2021/12/08 08:02:26;;;;;;;39.65;19.25;;;;;;;-0.91;74.09;99310.06;4434763;32;33417;-70
2021/12/08 08:05:14;;;;;;;41.25;20.85;;;;;;;-0.33;73.09;99310.66;4421813;32;34290;-70
2021/12/08 08:08:04;;;;;;;42.20;18.70;;;;;;;-1.98;77.07;99318.78;4431715;32;34681;-70
2021/12/08 08:10:56;;;;;;;40.95;20.17;;;;;;;-1.56;78.64;99318.56;4434598;32;34945;-70
2021/12/08 08:13:42;;;;;;;35.50;18.00;;;;;;;-0.96;76.58;99319.91;4433549;32;34559;-70
2021/12/08 08:16:32;;;;;;;30.92;15.88;;;;;;;-1.00;76.87;99306.13;4434551;32;33896;-70
2021/12/08 08:19:25;;;;;;;30.88;15.40;;;;;;;-1.38;77.78;99314.87;4433545;32;33454;-70
2021/12/08 08:22:17;;;;;;;32.10;15.80;;;;;;;-0.64;75.48;99320.16;4433987;32;35046;-71
2021/12/08 08:25:06;;;;;;;32.63;15.60;;;;;;;-0.02;74.30;99322.66;4434227;32;35305;-70
2021/12/08 08:27:53;;;;;;;34.08;16.25;;;;;;;-0.15;75.01;99325.72;4433205;32;34405;-70
2021/12/08 08:30:52;;;;;;;34.25;16.98;;;;;;;-0.70;75.08;99324.63;4433513;32;35464;-70
2021/12/08 08:33:40;;;;;;;36.35;17.15;;;;;;;-0.37;74.34;99330.25;4433206;32;35878;-70
2021/12/08 08:36:41;;;;;;;37.47;17.55;;;;;;;-0.02;74.33;99330.75;4434247;32;35132;-70
2021/12/08 08:39:30;;;;;;;36.03;17.77;;;;;;;-1.05;78.73;99330.25;4433684;32;35124;-69
2021/12/08 08:42:40;;;;;;;40.15;18.37;;;;;;;-0.10;76.16;99331.19;4432319;32;34419;-70
2021/12/08 08:45:39;;;;;;;39.80;17.48;;;;;;;0.11;75.10;99331.44;4434186;32;35966;-71
2021/12/08 08:48:33;;;;;;;37.65;18.20;;;;;;;0.48;73.93;99325.41;4433008;32;34532;-71
2021/12/08 08:51:27;;;;;;;43.35;19.77;;;;;;;0.61;72.89;99325.03;4432700;32;35181;-70
2021/12/08 08:54:20;;;;;;;38.30;19.75;;;;;;;0.78;73.10;99325.75;4433109;32;34191;-69
2021/12/08 08:57:09;;;;;;;44.72;20.92;;;;;;;0.43;74.76;99323.50;4432692;32;35679;-70
2021/12/08 09:00:19;;;;;;;44.92;20.52;;;;;;;1.23;73.54;99324.56;4433890;32;34624;-70
2021/12/08 09:03:09;;;;;;;42.62;20.08;;;;;;;0.55;76.08;99326.06;4418951;32;35211;-70
2021/12/08 09:06:06;;;;;;;41.28;19.77;;;;;;;0.99;75.59;99304.38;4434000;32;34569;-70
2021/12/08 09:08:53;;;;;;;40.38;19.05;;;;;;;1.41;74.70;99300.94;4434010;32;36050;-70
2021/12/08 09:11:43;;;;;;;43.70;19.70;;;;;;;1.62;74.10;99291.87;4433763;32;34752;-70
2021/12/08 09:14:33;;;;;;;43.35;19.35;;;;;;;1.56;74.04;99303.72;4419282;32;34257;-70
2021/12/08 09:17:26;;;;;;;40.17;19.27;;;;;;;1.73;73.95;99304.38;4434012;32;35562;-69
2021/12/08 09:20:29;;;;;;;38.60;18.45;;;;;;;2.32;72.89;99295.22;4431261;32;33869;-70
2021/12/08 09:23:29;;;;;;;40.05;20.27;;;;;;;2.36;72.28;99296.31;4431780;32;34753;-70
2021/12/08 09:26:19;;;;;;;46.00;20.95;;;;;;;2.75;70.88;99295.88;4433765;32;34544;-69
2021/12/08 09:29:13;;;;;;;42.42;20.88;;;;;;;2.67;71.24;99299.91;4432657;32;34093;-70
2021/12/08 09:32:08;;;;;;;44.10;21.00;;;;;;;2.87;71.15;99290.19;4421517;32;35858;-70
2021/12/08 09:34:58;;;;;;;42.45;20.12;;;;;;;2.54;70.89;99284.19;4433003;32;34386;-71
2021/12/08 09:37:51;;;;;;;42.50;22.13;;;;;;;3.26;69.62;99289.69;4432346;32;34485;-70
2021/12/08 09:40:47;;;;;;;42.30;20.95;;;;;;;3.15;69.24;99278.84;4432665;32;35562;-70
2021/12/08 09:43:37;;;;;;;43.58;20.80;;;;;;;3.31;68.67;99284.28;4432393;32;34645;-70
2021/12/08 09:46:38;;;;;;;41.92;21.30;;;;;;;3.57;67.21;99275.03;4433494;32;35154;-70
2021/12/08 09:49:26;;;;;;;43.67;20.45;;;;;;;3.64;66.91;99276.63;4432553;32;33814;-70
2021/12/08 09:52:14;;;;;;;44.25;22.33;;;;;;;3.97;66.32;99270.59;4431715;32;34519;-70
2021/12/08 09:55:02;;;;;;;47.00;22.17;;;;;;;3.73;67.43;99273.12;4432463;32;35924;-70
2021/12/08 09:57:49;;;;;;;76.53;31.90;;;;;;;3.94;65.95;99267.63;4431855;32;34708;-71
2021/12/08 10:00:41;;;;;;;71.75;30.45;;;;;;;3.66;66.34;99274.47;4432203;32;35145;-71
2021/12/08 10:03:27;;;;;;;51.47;24.52;;;;;;;3.68;66.67;99266.91;4432269;32;34309;-70
2021/12/08 10:06:15;;;;;;;52.13;23.87;;;;;;;2.19;70.99;99253.28;4432828;32;35595;-70
2021/12/08 10:09:02;;;;;;;84.03;35.33;;;;;;;2.74;70.38;99256.38;4431919;32;34321;-70
2021/12/08 10:11:48;;;;;;;70.85;30.33;;;;;;;3.36;68.76;99251.78;4433323;32;33922;-70
2021/12/08 10:14:36;;;;;;;59.05;27.40;;;;;;;3.14;68.33;99247.47;4431783;32;34622;-71
2021/12/08 10:17:22;;;;;;;49.40;23.45;;;;;;;3.15;70.32;99251.78;4433039;32;34702;-70
2021/12/08 10:20:31;;;;;;;49.65;22.95;;;;;;;3.70;67.81;99241.16;4433141;32;35357;-70
2021/12/08 10:23:33;;;;;;;47.92;23.40;;;;;;;3.91;65.60;99247.31;4428422;32;97610;-71
2021/12/08 10:26:24;;;;;;;44.17;22.45;;;;;;;4.05;66.28;99240.22;4421073;32;35222;-71
2021/12/08 10:29:11;;;;;;;48.00;23.70;;;;;;;4.00;65.79;99236.69;4431830;32;34513;-71
2021/12/08 10:31:59;;;;;;;44.92;22.77;;;;;;;2.96;69.46;99228.22;4433795;32;34640;-70
2021/12/08 10:35:03;;;;;;;47.30;23.70;;;;;;;3.64;67.93;99236.00;4423670;32;35104;-70
2021/12/08 10:38:00;;;;;;;51.75;24.48;;;;;;;3.44;68.28;99234.97;4435028;32;36924;-70
2021/12/08 10:40:59;;;;;;;46.00;22.70;;;;;;;3.35;68.91;99228.47;4433979;32;35884;-71
2021/12/08 10:43:59;;;;;;;46.08;23.35;;;;;;;4.01;66.93;99211.22;4433969;32;35480;-71
2021/12/08 10:46:45;;;;;;;49.97;24.02;;;;;;;4.36;65.73;99212.12;4423281;32;34214;-71
2021/12/08 10:55:29;;;;;;;53.65;24.25;;;;;;;4.46;63.39;99196.59;4434380;32;34193;-71
2021/12/08 10:58:27;;;;;;;49.03;24.55;;;;;;;3.52;66.74;99201.91;4434587;32;35147;-71
2021/12/08 11:01:19;;;;;;;45.83;23.75;;;;;;;4.10;66.04;99193.28;4434346;32;33483;-71
2021/12/08 11:04:08;;;;;;;49.17;24.37;;;;;;;3.92;65.98;99186.56;4435046;32;34938;-71
2021/12/08 11:07:06;;;;;;;49.30;24.63;;;;;;;4.08;65.45;99189.22;4433627;32;34846;-71
2021/12/08 11:09:52;;;;;;;46.60;23.70;;;;;;;3.98;65.53;99184.66;4433518;32;35117;-71
2021/12/08 11:12:39;;;;;;;51.65;24.40;;;;;;;3.88;66.12;99182.00;4434281;32;35201;-71
2021/12/08 11:15:27;;;;;;;52.72;24.35;;;;;;;4.30;65.25;99178.81;4433279;32;35972;-71
2021/12/08 11:18:20;;;;;;;49.67;23.98;;;;;;;4.20;65.38;99174.25;4434894;32;34462;-72
2021/12/08 11:21:20;;;;;;;55.12;23.23;;;;;;;4.21;65.24;99183.19;4433723;32;35024;-71
2021/12/08 11:24:38;;;;;;;49.80;22.17;;;;;;;4.43;64.91;99169.22;4424804;32;34516;-71
2021/12/08 11:27:30;;;;;;;43.28;21.92;;;;;;;4.54;63.47;99164.53;4434239;32;34836;-71
2021/12/08 11:30:22;;;;;;;47.25;21.80;;;;;;;4.37;64.99;99165.72;4434416;32;34672;-71
2021/12/08 11:33:21;;;;;;;41.22;20.02;;;;;;;3.95;65.81;99164.34;4424649;32;34256;-71
2021/12/08 11:36:11;;;;;;;44.25;21.08;;;;;;;4.06;63.97;99173.22;4434148;32;34325;-71
2021/12/08 11:38:57;;;;;;;44.15;21.20;;;;;;;4.23;63.25;99175.59;4433192;32;35927;-71
2021/12/08 11:41:47;;;;;;;38.53;20.45;;;;;;;4.33;63.12;99159.25;4434972;32;34617;-71
2021/12/08 11:44:36;;;;;;;39.45;20.25;;;;;;;4.04;63.98;99162.69;4422619;32;35799;-71
2021/12/08 11:47:34;;;;;;;44.95;21.25;;;;;;;4.11;64.76;99161.56;4433747;32;34250;-71
2021/12/08 11:50:21;;;;;;;44.00;21.35;;;;;;;4.23;65.09;99165.53;4433885;32;34884;-71
2021/12/08 11:53:08;;;;;;;43.63;21.83;;;;;;;4.47;64.10;99157.53;4434976;32;34623;-71
2021/12/08 11:55:54;;;;;;;46.63;21.48;;;;;;;4.30;64.62;99159.81;4433995;32;34891;-72
2021/12/08 11:58:53;;;;;;;42.95;20.42;;;;;;;4.19;65.14;99159.06;4434624;32;34692;-72
2021/12/08 12:01:39;;;;;;;43.47;20.83;;;;;;;4.23;63.99;99157.41;4434026;32;35948;-71
2021/12/08 12:04:26;;;;;;;41.70;21.40;;;;;;;4.28;64.21;99162.00;4432962;32;35469;-72
2021/12/08 12:07:13;;;;;;;43.67;21.50;;;;;;;4.10;64.85;99159.91;4423043;32;34253;-71
2021/12/08 12:10:00;;;;;;;48.17;21.95;;;;;;;4.32;65.03;99151.38;4434821;32;34259;-71
2021/12/08 12:12:46;;;;;;;48.65;20.70;;;;;;;4.34;63.90;99144.59;4433950;32;34773;-71
2021/12/08 12:15:33;;;;;;;42.70;19.80;;;;;;;3.94;65.23;99157.31;4434999;32;35658;-71
2021/12/08 12:18:22;;;;;;;40.92;19.48;;;;;;;4.01;65.57;99144.28;4434514;32;34034;-71
2021/12/08 12:21:46;;;;;;;40.60;20.15;;;;;;;4.10;64.82;99143.66;4433155;32;34384;-72
2021/12/08 12:24:42;;;;;;;41.58;21.17;;;;;;;4.46;63.79;99130.66;4418193;32;34964;-71
2021/12/08 12:28:05;;;;;;;41.47;20.62;;;;;;;4.53;63.14;99124.94;4433934;32;35207;-71
2021/12/08 12:31:19;;;;;;;45.47;20.67;;;;;;;4.49;63.19;99133.63;4422110;32;34858;-71
2021/12/08 12:34:36;;;;;;;43.50;21.48;;;;;;;4.26;64.24;99142.47;4432805;32;34655;-71
2021/12/08 12:37:35;;;;;;;51.67;23.50;;;;;;;4.27;64.46;99133.28;4434689;32;34960;-71
2021/12/08 12:40:33;;;;;;;51.88;24.23;;;;;;;3.86;65.46;99133.50;4432566;32;35467;-71
2021/12/08 12:43:27;;;;;;;52.80;25.12;;;;;;;4.15;64.83;99124.66;4432723;32;33882;-71
2021/12/08 12:46:17;;;;;;;52.30;25.40;;;;;;;3.88;65.61;99133.22;4430894;32;33653;-71
2021/12/08 12:49:23;;;;;;;59.13;26.77;;;;;;;4.24;65.06;99123.78;4431387;32;34555;-71
2021/12/08 12:52:12;;;;;;;47.88;24.48;;;;;;;4.18;65.36;99113.25;4427973;32;34690;-71
2021/12/08 12:55:13;;;;;;;52.75;25.67;;;;;;;4.16;65.20;99126.28;4429774;32;34795;-71
2021/12/08 12:58:03;;;;;;;47.55;23.95;;;;;;;4.23;64.84;99121.34;4409167;32;34610;-71
2021/12/08 13:01:04;;;;;;;55.60;24.52;;;;;;;3.64;67.32;99114.88;4431548;32;34914;-71
2021/12/08 13:03:53;;;;;;;44.38;22.85;;;;;;;4.21;65.63;99105.38;4432683;32;34542;-71
2021/12/08 13:06:56;;;;;;;47.47;21.83;;;;;;;4.62;64.54;99112.38;4433140;32;34253;-71
2021/12/08 13:09:57;;;;;;;46.53;23.02;;;;;;;4.71;63.44;99110.66;4432681;32;35047;-71
2021/12/08 13:12:44;;;;;;;43.35;20.88;;;;;;;4.41;64.77;99101.69;4432511;32;35820;-71
2021/12/08 13:15:33;;;;;;;41.92;20.70;;;;;;;4.02;66.11;99113.34;4431575;32;34508;-71
2021/12/08 13:18:20;;;;;;;39.58;20.80;;;;;;;4.21;65.60;99107.25;4433821;32;35353;-71
2021/12/08 13:21:10;;;;;;;39.13;19.40;;;;;;;4.63;64.30;99109.37;4432897;32;34526;-74
2021/12/08 13:23:56;;;;;;;39.50;19.42;;;;;;;4.12;65.74;99115.16;4432177;32;35993;-72
2021/12/08 13:26:49;;;;;;;38.63;19.35;;;;;;;4.58;64.36;99119.44;4433150;32;35482;-71
2021/12/08 13:29:41;;;;;;;37.53;18.12;;;;;;;4.32;65.29;99119.66;4430818;32;34116;-71
2021/12/08 13:32:45;;;;;;;39.42;19.05;;;;;;;4.60;64.26;99125.41;4432568;32;35596;-70
2021/12/08 13:35:33;;;;;;;45.33;20.67;;;;;;;4.65;64.72;99114.53;4430672;32;33738;-69
2021/12/08 13:38:22;;;;;;;39.85;20.02;;;;;;;4.85;64.40;99117.03;4430470;32;35204;-69
2021/12/08 13:41:14;;;;;;;38.60;20.05;;;;;;;4.44;65.99;99127.41;4421417;32;33065;-70
2021/12/08 13:44:36;;;;;;;42.53;19.83;;;;;;;4.17;66.84;99120.56;4432222;32;34632;-69
2021/12/08 13:47:26;;;;;;;40.03;18.77;;;;;;;3.88;67.57;99131.31;4429053;32;34966;-69
2021/12/08 13:50:17;;;;;;;41.35;20.15;;;;;;;4.11;67.11;99129.03;4432391;32;36074;-69
2021/12/08 13:53:06;;;;;;;40.42;18.85;;;;;;;3.87;67.33;99135.13;4431414;32;33191;-69
2021/12/08 13:56:00;;;;;;;40.25;20.70;;;;;;;4.20;66.53;99127.34;4431645;32;35161;-69
2021/12/08 13:58:46;;;;;;;40.38;19.60;;;;;;;4.04;66.99;99130.16;4431932;32;34886;-69